sensor_id;sensor_type;location;lat;lon;timestamp;P1;durP1;ratioP1;P2;durP2;ratioP2
77705;SDS011;66874;45.274;5.880;2024-03-23T00:55:51;4.78;;;1.83;;
77705;SDS011;66874;45.274;5.880;2024-03-23T00:58:17;3.83;;;1.75;;
77705;SDS011;66874;45.274;5.880;2024-03-23T01:00:42;2.88;;;1.83;;
77705;SDS011;66874;45.274;5.880;2024-03-23T01:03:08;4.85;;;1.50;;
77705;SDS011;66874;45.274;5.880;2024-03-23T01:05:33;2.92;;;1.90;;
77705;SDS011;66874;45.274;5.880;2024-03-23T01:07:58;2.25;;;1.23;;
77705;SDS011;66874;45.274;5.880;2024-03-23T01:10:24;2.45;;;1.65;;
77705;SDS011;66874;45.274;5.880;2024-03-23T01:12:49;3.88;;;1.50;;
77705;SDS011;66874;45.274;5.880;2024-03-23T01:15:14;4.18;;;1.80;;
77705;SDS011;66874;45.274;5.880;2024-03-23T01:17:40;4.10;;;1.80;;
77705;SDS011;66874;45.274;5.880;2024-03-23T01:20:05;2.85;;;1.42;;
77705;SDS011;66874;45.274;5.880;2024-03-23T01:22:31;5.88;;;2.17;;
77705;SDS011;66874;45.274;5.880;2024-03-23T01:24:57;4.55;;;2.28;;
77705;SDS011;66874;45.274;5.880;2024-03-23T01:27:23;4.60;;;2.47;;
77705;SDS011;66874;45.274;5.880;2024-03-23T01:29:48;4.88;;;2.58;;
77705;SDS011;66874;45.274;5.880;2024-03-23T01:32:14;4.40;;;2.65;;
77705;SDS011;66874;45.274;5.880;2024-03-23T01:34:39;6.22;;;2.80;;
77705;SDS011;66874;45.274;5.880;2024-03-23T01:37:04;3.85;;;2.60;;
77705;SDS011;66874;45.274;5.880;2024-03-23T01:39:30;5.07;;;2.95;;
77705;SDS011;66874;45.274;5.880;2024-03-23T01:41:55;8.45;;;3.40;;
77705;SDS011;66874;45.274;5.880;2024-03-23T01:44:20;8.30;;;2.88;;
77705;SDS011;66874;45.274;5.880;2024-03-23T01:46:46;9.90;;;3.40;;
77705;SDS011;66874;45.274;5.880;2024-03-23T01:49:12;5.30;;;2.83;;
77705;SDS011;66874;45.274;5.880;2024-03-23T01:51:37;6.88;;;3.20;;
77705;SDS011;66874;45.274;5.880;2024-03-23T01:54:03;4.28;;;2.72;;
77705;SDS011;66874;45.274;5.880;2024-03-23T01:56:34;3.33;;;2.55;;
77705;SDS011;66874;45.274;5.880;2024-03-23T01:59:09;4.07;;;2.60;;
77705;SDS011;66874;45.274;5.880;2024-03-23T02:01:34;3.65;;;2.53;;
77705;SDS011;66874;45.274;5.880;2024-03-23T02:04:03;3.72;;;2.70;;
77705;SDS011;66874;45.274;5.880;2024-03-23T02:06:29;4.43;;;2.60;;
77705;SDS011;66874;45.274;5.880;2024-03-23T02:08:54;5.20;;;3.10;;
77705;SDS011;66874;45.274;5.880;2024-03-23T02:11:20;12.52;;;3.20;;
77705;SDS011;66874;45.274;5.880;2024-03-23T02:13:45;8.77;;;3.30;;
77705;SDS011;66874;45.274;5.880;2024-03-23T02:16:11;6.35;;;2.90;;
77705;SDS011;66874;45.274;5.880;2024-03-23T02:18:38;3.30;;;2.70;;
77705;SDS011;66874;45.274;5.880;2024-03-23T02:21:03;6.60;;;3.00;;
77705;SDS011;66874;45.274;5.880;2024-03-23T02:23:29;4.90;;;2.92;;
77705;SDS011;66874;45.274;5.880;2024-03-23T02:25:54;6.68;;;3.63;;
77705;SDS011;66874;45.274;5.880;2024-03-23T02:28:20;4.97;;;2.83;;
77705;SDS011;66874;45.274;5.880;2024-03-23T02:30:47;4.38;;;2.90;;
77705;SDS011;66874;45.274;5.880;2024-03-23T02:33:13;7.80;;;3.10;;
77705;SDS011;66874;45.274;5.880;2024-03-23T02:35:38;6.10;;;3.45;;
77705;SDS011;66874;45.274;5.880;2024-03-23T02:38:03;4.32;;;2.90;;
77705;SDS011;66874;45.274;5.880;2024-03-23T02:40:29;4.55;;;3.22;;
77705;SDS011;66874;45.274;5.880;2024-03-23T02:42:54;6.55;;;3.22;;
77705;SDS011;66874;45.274;5.880;2024-03-23T02:45:20;4.22;;;2.97;;
77705;SDS011;66874;45.274;5.880;2024-03-23T02:47:45;5.55;;;3.63;;
77705;SDS011;66874;45.274;5.880;2024-03-23T02:50:11;5.28;;;3.08;;
77705;SDS011;66874;45.274;5.880;2024-03-23T02:52:36;5.60;;;3.78;;
77705;SDS011;66874;45.274;5.880;2024-03-23T02:55:02;5.57;;;3.10;;
77705;SDS011;66874;45.274;5.880;2024-03-23T02:57:28;8.68;;;3.60;;
77705;SDS011;66874;45.274;5.880;2024-03-23T02:59:54;5.82;;;3.08;;
77705;SDS011;66874;45.274;5.880;2024-03-23T03:02:19;4.72;;;3.17;;
77705;SDS011;66874;45.274;5.880;2024-03-23T03:04:46;13.57;;;4.90;;
77705;SDS011;66874;45.274;5.880;2024-03-23T03:07:11;5.00;;;3.28;;
77705;SDS011;66874;45.274;5.880;2024-03-23T03:09:37;6.22;;;3.40;;
77705;SDS011;66874;45.274;5.880;2024-03-23T03:12:04;5.22;;;3.55;;
77705;SDS011;66874;45.274;5.880;2024-03-23T03:14:32;5.32;;;3.28;;
77705;SDS011;66874;45.274;5.880;2024-03-23T03:16:58;5.43;;;2.90;;
77705;SDS011;66874;45.274;5.880;2024-03-23T03:19:23;9.73;;;3.45;;
77705;SDS011;66874;45.274;5.880;2024-03-23T03:21:49;6.68;;;3.63;;
77705;SDS011;66874;45.274;5.880;2024-03-23T03:24:14;5.55;;;3.17;;
77705;SDS011;66874;45.274;5.880;2024-03-23T03:26:40;3.83;;;3.28;;
77705;SDS011;66874;45.274;5.880;2024-03-23T03:29:05;6.13;;;3.08;;
77705;SDS011;66874;45.274;5.880;2024-03-23T03:31:30;6.32;;;3.10;;
77705;SDS011;66874;45.274;5.880;2024-03-23T03:33:56;5.72;;;3.90;;
77705;SDS011;66874;45.274;5.880;2024-03-23T03:36:21;4.95;;;3.17;;
77705;SDS011;66874;45.274;5.880;2024-03-23T03:38:47;6.38;;;2.95;;
77705;SDS011;66874;45.274;5.880;2024-03-23T03:41:12;6.85;;;3.20;;
77705;SDS011;66874;45.274;5.880;2024-03-23T03:43:37;4.28;;;2.95;;
77705;SDS011;66874;45.274;5.880;2024-03-23T03:46:03;4.65;;;2.90;;
77705;SDS011;66874;45.274;5.880;2024-03-23T03:48:29;4.18;;;2.67;;
77705;SDS011;66874;45.274;5.880;2024-03-23T03:50:55;7.60;;;3.28;;
77705;SDS011;66874;45.274;5.880;2024-03-23T03:53:20;8.07;;;3.10;;
77705;SDS011;66874;45.274;5.880;2024-03-23T03:55:46;5.78;;;2.83;;
77705;SDS011;66874;45.274;5.880;2024-03-23T03:58:11;4.65;;;3.10;;
77705;SDS011;66874;45.274;5.880;2024-03-23T04:00:37;5.55;;;2.85;;
77705;SDS011;66874;45.274;5.880;2024-03-23T04:03:02;4.50;;;2.60;;
77705;SDS011;66874;45.274;5.880;2024-03-23T04:05:28;7.35;;;2.97;;
77705;SDS011;66874;45.274;5.880;2024-03-23T04:07:53;5.38;;;2.90;;
77705;SDS011;66874;45.274;5.880;2024-03-23T04:10:19;6.82;;;3.15;;
77705;SDS011;66874;45.274;5.880;2024-03-23T04:12:45;6.18;;;3.25;;
77705;SDS011;66874;45.274;5.880;2024-03-23T04:15:11;5.38;;;3.22;;
77705;SDS011;66874;45.274;5.880;2024-03-23T04:17:36;4.35;;;3.00;;
77705;SDS011;66874;45.274;5.880;2024-03-23T04:20:02;9.98;;;3.15;;
77705;SDS011;66874;45.274;5.880;2024-03-23T04:22:34;9.52;;;3.13;;
77705;SDS011;66874;45.274;5.880;2024-03-23T04:25:00;8.35;;;3.60;;
77705;SDS011;66874;45.274;5.880;2024-03-23T04:27:25;5.82;;;2.95;;
77705;SDS011;66874;45.274;5.880;2024-03-23T04:29:51;9.23;;;3.53;;
77705;SDS011;66874;45.274;5.880;2024-03-23T04:32:18;5.13;;;3.20;;
77705;SDS011;66874;45.274;5.880;2024-03-23T04:34:44;4.22;;;2.70;;
77705;SDS011;66874;45.274;5.880;2024-03-23T04:37:10;5.47;;;3.57;;
77705;SDS011;66874;45.274;5.880;2024-03-23T04:39:36;7.35;;;2.60;;
77705;SDS011;66874;45.274;5.880;2024-03-23T04:42:02;5.25;;;2.90;;
77705;SDS011;66874;45.274;5.880;2024-03-23T04:44:28;6.38;;;3.05;;
77705;SDS011;66874;45.274;5.880;2024-03-23T04:46:53;5.25;;;3.75;;
77705;SDS011;66874;45.274;5.880;2024-03-23T04:49:19;5.88;;;3.15;;
77705;SDS011;66874;45.274;5.880;2024-03-23T04:51:44;8.98;;;3.25;;
77705;SDS011;66874;45.274;5.880;2024-03-23T04:54:14;6.20;;;3.43;;
77705;SDS011;66874;45.274;5.880;2024-03-23T04:56:39;12.05;;;3.10;;
77705;SDS011;66874;45.274;5.880;2024-03-23T04:59:05;8.60;;;3.45;;
77705;SDS011;66874;45.274;5.880;2024-03-23T05:01:33;5.50;;;3.05;;
77705;SDS011;66874;45.274;5.880;2024-03-23T05:03:58;7.75;;;3.83;;
77705;SDS011;66874;45.274;5.880;2024-03-23T05:06:24;5.28;;;2.80;;
77705;SDS011;66874;45.274;5.880;2024-03-23T05:08:50;4.63;;;2.28;;
77705;SDS011;66874;45.274;5.880;2024-03-23T05:11:19;3.55;;;2.38;;
77705;SDS011;66874;45.274;5.880;2024-03-23T05:13:45;3.50;;;2.33;;
77705;SDS011;66874;45.274;5.880;2024-03-23T05:16:11;5.40;;;1.83;;
77705;SDS011;66874;45.274;5.880;2024-03-23T05:18:37;3.70;;;1.55;;
77705;SDS011;66874;45.274;5.880;2024-03-23T05:21:02;4.40;;;3.15;;
77705;SDS011;66874;45.274;5.880;2024-03-23T05:23:28;4.63;;;2.28;;
77705;SDS011;66874;45.274;5.880;2024-03-23T05:25:54;3.78;;;2.60;;
77705;SDS011;66874;45.274;5.880;2024-03-23T05:28:20;4.50;;;2.15;;
77705;SDS011;66874;45.274;5.880;2024-03-23T05:30:50;5.13;;;2.40;;
77705;SDS011;66874;45.274;5.880;2024-03-23T05:33:19;4.03;;;2.50;;
77705;SDS011;66874;45.274;5.880;2024-03-23T05:35:45;5.75;;;2.25;;
77705;SDS011;66874;45.274;5.880;2024-03-23T05:38:12;3.78;;;2.25;;
77705;SDS011;66874;45.274;5.880;2024-03-23T05:40:40;5.50;;;2.70;;
77705;SDS011;66874;45.274;5.880;2024-03-23T05:43:06;4.72;;;2.40;;
77705;SDS011;66874;45.274;5.880;2024-03-23T05:45:31;8.90;;;2.50;;
77705;SDS011;66874;45.274;5.880;2024-03-23T05:47:57;6.80;;;2.88;;
77705;SDS011;66874;45.274;5.880;2024-03-23T05:50:23;4.70;;;2.65;;
77705;SDS011;66874;45.274;5.880;2024-03-23T05:52:49;5.82;;;2.83;;
77705;SDS011;66874;45.274;5.880;2024-03-23T05:55:15;8.40;;;2.85;;
77705;SDS011;66874;45.274;5.880;2024-03-23T05:57:40;8.35;;;3.92;;
77705;SDS011;66874;45.274;5.880;2024-03-23T06:00:06;7.93;;;2.88;;
77705;SDS011;66874;45.274;5.880;2024-03-23T06:02:40;3.90;;;3.15;;
77705;SDS011;66874;45.274;5.880;2024-03-23T06:05:06;8.30;;;3.55;;
77705;SDS011;66874;45.274;5.880;2024-03-23T06:07:32;6.90;;;4.20;;
77705;SDS011;66874;45.274;5.880;2024-03-23T06:09:58;5.88;;;4.03;;
77705;SDS011;66874;45.274;5.880;2024-03-23T06:12:24;5.40;;;3.58;;
77705;SDS011;66874;45.274;5.880;2024-03-23T06:14:49;6.57;;;3.83;;
77705;SDS011;66874;45.274;5.880;2024-03-23T06:17:15;7.93;;;4.25;;
77705;SDS011;66874;45.274;5.880;2024-03-23T06:19:40;7.82;;;4.32;;
77705;SDS011;66874;45.274;5.880;2024-03-23T06:22:06;8.70;;;4.18;;
77705;SDS011;66874;45.274;5.880;2024-03-23T06:24:31;6.30;;;3.88;;
77705;SDS011;66874;45.274;5.880;2024-03-23T06:26:57;8.85;;;5.55;;
77705;SDS011;66874;45.274;5.880;2024-03-23T06:29:22;7.07;;;4.15;;
77705;SDS011;66874;45.274;5.880;2024-03-23T06:31:54;6.20;;;4.05;;
77705;SDS011;66874;45.274;5.880;2024-03-23T06:34:20;6.28;;;3.72;;
77705;SDS011;66874;45.274;5.880;2024-03-23T06:36:47;7.15;;;4.32;;
77705;SDS011;66874;45.274;5.880;2024-03-23T06:39:12;8.32;;;4.05;;
77705;SDS011;66874;45.274;5.880;2024-03-23T06:44:06;9.35;;;3.88;;
77705;SDS011;66874;45.274;5.880;2024-03-23T06:46:31;8.00;;;4.20;;
77705;SDS011;66874;45.274;5.880;2024-03-23T06:48:57;11.30;;;4.82;;
77705;SDS011;66874;45.274;5.880;2024-03-23T06:51:22;9.88;;;4.30;;
77705;SDS011;66874;45.274;5.880;2024-03-23T06:53:49;10.32;;;5.13;;
77705;SDS011;66874;45.274;5.880;2024-03-23T06:56:15;10.07;;;4.63;;
77705;SDS011;66874;45.274;5.880;2024-03-23T06:58:40;9.35;;;4.13;;
77705;SDS011;66874;45.274;5.880;2024-03-23T07:01:05;11.00;;;4.97;;
77705;SDS011;66874;45.274;5.880;2024-03-23T07:03:32;12.23;;;4.82;;
77705;SDS011;66874;45.274;5.880;2024-03-23T07:05:57;15.63;;;5.32;;
77705;SDS011;66874;45.274;5.880;2024-03-23T07:08:23;7.70;;;4.43;;
77705;SDS011;66874;45.274;5.880;2024-03-23T07:10:49;9.98;;;5.03;;
77705;SDS011;66874;45.274;5.880;2024-03-23T07:13:14;10.52;;;4.40;;
77705;SDS011;66874;45.274;5.880;2024-03-23T07:15:39;7.10;;;4.47;;
77705;SDS011;66874;45.274;5.880;2024-03-23T07:18:05;10.43;;;4.20;;
77705;SDS011;66874;45.274;5.880;2024-03-23T07:20:30;8.30;;;3.97;;
77705;SDS011;66874;45.274;5.880;2024-03-23T07:22:56;9.13;;;3.78;;
77705;SDS011;66874;45.274;5.880;2024-03-23T07:25:22;7.78;;;3.75;;
77705;SDS011;66874;45.274;5.880;2024-03-23T07:27:48;4.22;;;3.30;;
77705;SDS011;66874;45.274;5.880;2024-03-23T07:30:14;6.55;;;3.47;;
77705;SDS011;66874;45.274;5.880;2024-03-23T07:32:39;5.22;;;3.92;;
77705;SDS011;66874;45.274;5.880;2024-03-23T07:35:04;9.32;;;4.07;;
77705;SDS011;66874;45.274;5.880;2024-03-23T07:37:30;9.07;;;4.07;;
77705;SDS011;66874;45.274;5.880;2024-03-23T07:39:56;4.80;;;3.00;;
77705;SDS011;66874;45.274;5.880;2024-03-23T07:42:22;4.95;;;3.90;;
77705;SDS011;66874;45.274;5.880;2024-03-23T07:44:48;7.15;;;3.80;;
77705;SDS011;66874;45.274;5.880;2024-03-23T07:47:14;8.52;;;4.50;;
77705;SDS011;66874;45.274;5.880;2024-03-23T07:49:39;5.82;;;3.38;;
77705;SDS011;66874;45.274;5.880;2024-03-23T07:52:05;7.80;;;3.33;;
77705;SDS011;66874;45.274;5.880;2024-03-23T07:54:31;6.18;;;3.20;;
77705;SDS011;66874;45.274;5.880;2024-03-23T07:56:56;4.80;;;2.78;;
77705;SDS011;66874;45.274;5.880;2024-03-23T07:59:21;10.30;;;9.05;;
77705;SDS011;66874;45.274;5.880;2024-03-23T08:01:47;5.47;;;4.45;;
77705;SDS011;66874;45.274;5.880;2024-03-23T08:04:12;3.88;;;3.30;;
77705;SDS011;66874;45.274;5.880;2024-03-23T08:06:38;4.32;;;2.63;;
77705;SDS011;66874;45.274;5.880;2024-03-23T08:09:03;7.53;;;3.05;;
77705;SDS011;66874;45.274;5.880;2024-03-23T08:11:29;8.18;;;4.95;;
77705;SDS011;66874;45.274;5.880;2024-03-23T08:13:56;6.82;;;3.28;;
77705;SDS011;66874;45.274;5.880;2024-03-23T08:16:22;6.93;;;3.28;;
77705;SDS011;66874;45.274;5.880;2024-03-23T08:18:48;7.47;;;3.88;;
77705;SDS011;66874;45.274;5.880;2024-03-23T08:23:41;5.53;;;3.33;;
77705;SDS011;66874;45.274;5.880;2024-03-23T08:26:07;6.05;;;3.25;;
77705;SDS011;66874;45.274;5.880;2024-03-23T08:31:03;8.30;;;3.10;;
77705;SDS011;66874;45.274;5.880;2024-03-23T08:33:33;5.38;;;3.65;;
77705;SDS011;66874;45.274;5.880;2024-03-23T08:36:00;7.47;;;2.40;;
77705;SDS011;66874;45.274;5.880;2024-03-23T08:38:27;5.13;;;2.50;;
77705;SDS011;66874;45.274;5.880;2024-03-23T08:40:56;8.15;;;4.15;;
77705;SDS011;66874;45.274;5.880;2024-03-23T08:43:35;6.32;;;4.18;;
77705;SDS011;66874;45.274;5.880;2024-03-23T08:48:31;6.38;;;3.35;;
77705;SDS011;66874;45.274;5.880;2024-03-23T08:51:08;8.73;;;3.53;;
77705;SDS011;66874;45.274;5.880;2024-03-23T08:53:37;6.82;;;3.53;;
77705;SDS011;66874;45.274;5.880;2024-03-23T08:56:03;7.03;;;3.65;;
77705;SDS011;66874;45.274;5.880;2024-03-23T08:58:30;7.35;;;3.38;;
77705;SDS011;66874;45.274;5.880;2024-03-23T09:00:56;4.82;;;2.72;;
77705;SDS011;66874;45.274;5.880;2024-03-23T09:03:31;4.05;;;2.47;;
77705;SDS011;66874;45.274;5.880;2024-03-23T09:05:56;7.22;;;2.33;;
77705;SDS011;66874;45.274;5.880;2024-03-23T09:08:23;5.57;;;2.57;;
77705;SDS011;66874;45.274;5.880;2024-03-23T09:10:48;5.63;;;2.30;;
77705;SDS011;66874;45.274;5.880;2024-03-23T09:13:14;4.43;;;2.90;;
77705;SDS011;66874;45.274;5.880;2024-03-23T09:15:49;2.30;;;1.65;;
77705;SDS011;66874;45.274;5.880;2024-03-23T09:18:16;2.42;;;1.80;;
77705;SDS011;66874;45.274;5.880;2024-03-23T09:20:41;3.80;;;1.65;;
77705;SDS011;66874;45.274;5.880;2024-03-23T09:23:07;3.75;;;1.35;;
77705;SDS011;66874;45.274;5.880;2024-03-23T09:25:36;1.83;;;1.23;;
77705;SDS011;66874;45.274;5.880;2024-03-23T09:28:05;3.10;;;1.00;;
77705;SDS011;66874;45.274;5.880;2024-03-23T09:30:32;2.28;;;1.30;;
77705;SDS011;66874;45.274;5.880;2024-03-23T09:32:58;1.88;;;1.05;;
77705;SDS011;66874;45.274;5.880;2024-03-23T09:35:24;2.15;;;1.73;;
77705;SDS011;66874;45.274;5.880;2024-03-23T09:37:49;1.98;;;1.02;;
77705;SDS011;66874;45.274;5.880;2024-03-23T09:40:14;2.72;;;1.00;;
77705;SDS011;66874;45.274;5.880;2024-03-23T09:42:40;1.80;;;1.02;;
77705;SDS011;66874;45.274;5.880;2024-03-23T09:45:16;2.90;;;1.00;;
77705;SDS011;66874;45.274;5.880;2024-03-23T09:47:44;2.13;;;1.00;;
77705;SDS011;66874;45.274;5.880;2024-03-23T09:50:12;1.92;;;1.13;;
77705;SDS011;66874;45.274;5.880;2024-03-23T09:52:38;1.95;;;0.90;;
77705;SDS011;66874;45.274;5.880;2024-03-23T09:55:04;1.52;;;1.02;;
77705;SDS011;66874;45.274;5.880;2024-03-23T09:57:30;1.08;;;0.82;;
77705;SDS011;66874;45.274;5.880;2024-03-23T09:59:55;8.77;;;1.30;;
77705;SDS011;66874;45.274;5.880;2024-03-23T10:02:22;2.22;;;1.20;;
77705;SDS011;66874;45.274;5.880;2024-03-23T10:04:49;2.30;;;1.30;;
77705;SDS011;66874;45.274;5.880;2024-03-23T10:07:15;2.40;;;1.50;;
77705;SDS011;66874;45.274;5.880;2024-03-23T10:09:44;3.50;;;1.35;;
77705;SDS011;66874;45.274;5.880;2024-03-23T10:12:13;2.17;;;1.17;;
77705;SDS011;66874;45.274;5.880;2024-03-23T10:14:40;6.40;;;1.80;;
77705;SDS011;66874;45.274;5.880;2024-03-23T10:17:11;1.63;;;0.90;;
77705;SDS011;66874;45.274;5.880;2024-03-23T10:19:38;1.70;;;1.33;;
77705;SDS011;66874;45.274;5.880;2024-03-23T10:22:04;1.63;;;0.88;;
77705;SDS011;66874;45.274;5.880;2024-03-23T10:24:29;2.17;;;0.88;;
77705;SDS011;66874;45.274;5.880;2024-03-23T10:26:57;3.47;;;1.00;;
77705;SDS011;66874;45.274;5.880;2024-03-23T10:29:23;1.67;;;0.95;;
77705;SDS011;66874;45.274;5.880;2024-03-23T10:31:48;7.88;;;1.00;;
77705;SDS011;66874;45.274;5.880;2024-03-23T10:34:14;2.55;;;0.90;;
77705;SDS011;66874;45.274;5.880;2024-03-23T10:36:40;2.30;;;0.80;;
77705;SDS011;66874;45.274;5.880;2024-03-23T10:39:07;1.92;;;1.02;;
77705;SDS011;66874;45.274;5.880;2024-03-23T10:41:32;1.10;;;0.90;;
77705;SDS011;66874;45.274;5.880;2024-03-23T10:43:59;2.10;;;0.70;;
77705;SDS011;66874;45.274;5.880;2024-03-23T10:48:52;1.30;;;0.68;;
77705;SDS011;66874;45.274;5.880;2024-03-23T10:51:17;2.72;;;1.30;;
77705;SDS011;66874;45.274;5.880;2024-03-23T10:53:43;2.22;;;1.05;;
77705;SDS011;66874;45.274;5.880;2024-03-23T10:56:11;4.82;;;1.25;;
77705;SDS011;66874;45.274;5.880;2024-03-23T10:58:39;4.10;;;1.02;;
77705;SDS011;66874;45.274;5.880;2024-03-23T11:01:10;1.90;;;1.00;;
77705;SDS011;66874;45.274;5.880;2024-03-23T11:03:37;4.78;;;0.93;;
77705;SDS011;66874;45.274;5.880;2024-03-23T11:06:06;2.38;;;1.10;;
77705;SDS011;66874;45.274;5.880;2024-03-23T11:11:18;3.83;;;1.02;;
77705;SDS011;66874;45.274;5.880;2024-03-23T11:13:47;3.63;;;1.00;;
77705;SDS011;66874;45.274;5.880;2024-03-23T11:16:14;2.50;;;1.00;;
77705;SDS011;66874;45.274;5.880;2024-03-23T11:18:52;3.88;;;1.10;;
77705;SDS011;66874;45.274;5.880;2024-03-23T11:24:21;2.08;;;1.13;;
77705;SDS011;66874;45.274;5.880;2024-03-23T11:26:47;3.17;;;1.00;;
77705;SDS011;66874;45.274;5.880;2024-03-23T11:29:14;3.65;;;0.95;;
77705;SDS011;66874;45.274;5.880;2024-03-23T11:31:48;2.42;;;1.30;;
77705;SDS011;66874;45.274;5.880;2024-03-23T11:34:17;4.13;;;1.10;;
77705;SDS011;66874;45.274;5.880;2024-03-23T11:36:44;6.05;;;1.10;;
77705;SDS011;66874;45.274;5.880;2024-03-23T11:39:19;3.15;;;1.40;;
77705;SDS011;66874;45.274;5.880;2024-03-23T11:41:49;4.80;;;1.02;;
77705;SDS011;66874;45.274;5.880;2024-03-23T11:46:45;1.90;;;0.88;;
77705;SDS011;66874;45.274;5.880;2024-03-23T11:49:24;2.75;;;1.95;;
77705;SDS011;66874;45.274;5.880;2024-03-23T11:51:51;4.90;;;0.93;;
77705;SDS011;66874;45.274;5.880;2024-03-23T11:54:19;4.67;;;1.00;;
77705;SDS011;66874;45.274;5.880;2024-03-23T11:57:02;5.03;;;1.42;;
77705;SDS011;66874;45.274;5.880;2024-03-23T11:59:39;2.88;;;0.80;;
77705;SDS011;66874;45.274;5.880;2024-03-23T12:02:12;4.25;;;0.90;;
77705;SDS011;66874;45.274;5.880;2024-03-23T12:04:41;3.42;;;0.90;;
77705;SDS011;66874;45.274;5.880;2024-03-23T12:09:40;2.05;;;0.70;;
77705;SDS011;66874;45.274;5.880;2024-03-23T12:12:16;3.93;;;1.10;;
77705;SDS011;66874;45.274;5.880;2024-03-23T12:14:43;4.40;;;1.05;;
77705;SDS011;66874;45.274;5.880;2024-03-23T12:17:26;4.25;;;1.08;;
77705;SDS011;66874;45.274;5.880;2024-03-23T12:19:51;6.63;;;1.30;;
77705;SDS011;66874;45.274;5.880;2024-03-23T12:22:20;2.50;;;1.00;;
77705;SDS011;66874;45.274;5.880;2024-03-23T12:24:45;4.90;;;1.23;;
77705;SDS011;66874;45.274;5.880;2024-03-23T12:27:11;5.53;;;2.00;;
77705;SDS011;66874;45.274;5.880;2024-03-23T12:29:36;1.73;;;0.75;;
77705;SDS011;66874;45.274;5.880;2024-03-23T12:32:04;3.33;;;1.30;;
77705;SDS011;66874;45.274;5.880;2024-03-23T12:34:29;3.42;;;0.95;;
77705;SDS011;66874;45.274;5.880;2024-03-23T12:36:55;4.15;;;1.00;;
77705;SDS011;66874;45.274;5.880;2024-03-23T12:39:21;6.60;;;1.00;;
77705;SDS011;66874;45.274;5.880;2024-03-23T12:41:47;5.20;;;1.15;;
77705;SDS011;66874;45.274;5.880;2024-03-23T12:44:13;3.53;;;0.90;;
77705;SDS011;66874;45.274;5.880;2024-03-23T12:46:39;3.42;;;1.27;;
77705;SDS011;66874;45.274;5.880;2024-03-23T12:49:05;3.40;;;0.90;;
77705;SDS011;66874;45.274;5.880;2024-03-23T12:51:31;4.35;;;1.10;;
77705;SDS011;66874;45.274;5.880;2024-03-23T12:53:57;5.30;;;2.22;;
77705;SDS011;66874;45.274;5.880;2024-03-23T12:56:22;3.50;;;1.08;;
77705;SDS011;66874;45.274;5.880;2024-03-23T12:58:47;3.63;;;0.63;;
77705;SDS011;66874;45.274;5.880;2024-03-23T13:01:16;5.00;;;0.95;;
77705;SDS011;66874;45.274;5.880;2024-03-23T13:03:42;2.85;;;0.93;;
77705;SDS011;66874;45.274;5.880;2024-03-23T13:06:09;3.15;;;1.02;;
77705;SDS011;66874;45.274;5.880;2024-03-23T13:08:35;4.65;;;0.93;;
77705;SDS011;66874;45.274;5.880;2024-03-23T13:11:00;1.95;;;0.80;;
77705;SDS011;66874;45.274;5.880;2024-03-23T13:13:25;4.40;;;1.20;;
77705;SDS011;66874;45.274;5.880;2024-03-23T13:15:51;4.05;;;0.85;;
77705;SDS011;66874;45.274;5.880;2024-03-23T13:18:16;3.97;;;0.80;;
77705;SDS011;66874;45.274;5.880;2024-03-23T13:20:42;2.83;;;0.55;;
77705;SDS011;66874;45.274;5.880;2024-03-23T13:23:07;5.60;;;1.00;;
77705;SDS011;66874;45.274;5.880;2024-03-23T13:25:33;4.30;;;0.70;;
77705;SDS011;66874;45.274;5.880;2024-03-23T13:27:59;3.15;;;0.50;;
77705;SDS011;66874;45.274;5.880;2024-03-23T13:30:24;1.75;;;0.65;;
77705;SDS011;66874;45.274;5.880;2024-03-23T13:32:49;2.78;;;1.00;;
77705;SDS011;66874;45.274;5.880;2024-03-23T13:35:15;3.67;;;1.05;;
77705;SDS011;66874;45.274;5.880;2024-03-23T13:37:41;5.07;;;1.08;;
77705;SDS011;66874;45.274;5.880;2024-03-23T13:40:06;5.20;;;1.00;;
77705;SDS011;66874;45.274;5.880;2024-03-23T13:42:32;4.43;;;0.80;;
77705;SDS011;66874;45.274;5.880;2024-03-23T13:44:58;4.85;;;0.70;;
77705;SDS011;66874;45.274;5.880;2024-03-23T13:47:23;1.60;;;0.65;;
77705;SDS011;66874;45.274;5.880;2024-03-23T13:49:49;3.53;;;1.15;;
77705;SDS011;66874;45.274;5.880;2024-03-23T13:52:14;2.58;;;0.90;;
77705;SDS011;66874;45.274;5.880;2024-03-23T13:54:39;2.35;;;0.73;;
77705;SDS011;66874;45.274;5.880;2024-03-23T13:57:10;6.63;;;0.90;;
77705;SDS011;66874;45.274;5.880;2024-03-23T13:59:35;2.70;;;0.82;;
77705;SDS011;66874;45.274;5.880;2024-03-23T14:02:01;4.07;;;1.00;;
77705;SDS011;66874;45.274;5.880;2024-03-23T14:04:26;4.38;;;0.57;;
77705;SDS011;66874;45.274;5.880;2024-03-23T14:06:52;3.33;;;0.77;;
77705;SDS011;66874;45.274;5.880;2024-03-23T14:09:17;1.80;;;0.60;;
77705;SDS011;66874;45.274;5.880;2024-03-23T14:11:47;1.13;;;0.68;;
77705;SDS011;66874;45.274;5.880;2024-03-23T14:14:13;3.13;;;0.85;;
77705;SDS011;66874;45.274;5.880;2024-03-23T14:16:48;2.70;;;0.70;;
77705;SDS011;66874;45.274;5.880;2024-03-23T14:19:13;3.03;;;0.55;;
77705;SDS011;66874;45.274;5.880;2024-03-23T14:21:38;1.75;;;0.75;;
77705;SDS011;66874;45.274;5.880;2024-03-23T14:24:04;3.17;;;0.90;;
77705;SDS011;66874;45.274;5.880;2024-03-23T14:26:30;4.55;;;1.05;;
77705;SDS011;66874;45.274;5.880;2024-03-23T14:28:55;3.85;;;0.80;;
77705;SDS011;66874;45.274;5.880;2024-03-23T14:31:21;1.67;;;0.60;;
77705;SDS011;66874;45.274;5.880;2024-03-23T14:33:46;2.80;;;0.75;;
77705;SDS011;66874;45.274;5.880;2024-03-23T14:36:12;2.92;;;0.90;;
77705;SDS011;66874;45.274;5.880;2024-03-23T14:38:38;5.50;;;1.13;;
77705;SDS011;66874;45.274;5.880;2024-03-23T14:41:04;2.88;;;0.63;;
77705;SDS011;66874;45.274;5.880;2024-03-23T14:43:30;5.97;;;0.93;;
77705;SDS011;66874;45.274;5.880;2024-03-23T14:46:08;6.32;;;0.93;;
77705;SDS011;66874;45.274;5.880;2024-03-23T14:48:34;3.58;;;0.80;;
77705;SDS011;66874;45.274;5.880;2024-03-23T14:51:00;2.10;;;0.65;;
77705;SDS011;66874;45.274;5.880;2024-03-23T14:53:27;2.60;;;0.73;;
77705;SDS011;66874;45.274;5.880;2024-03-23T14:55:55;3.42;;;0.73;;
77705;SDS011;66874;45.274;5.880;2024-03-23T14:58:25;5.80;;;0.90;;
77705;SDS011;66874;45.274;5.880;2024-03-23T15:00:51;2.35;;;1.10;;
77705;SDS011;66874;45.274;5.880;2024-03-23T15:03:19;4.53;;;1.10;;
77705;SDS011;66874;45.274;5.880;2024-03-23T15:05:54;3.13;;;0.90;;
77705;SDS011;66874;45.274;5.880;2024-03-23T15:08:20;6.30;;;1.27;;
77705;SDS011;66874;45.274;5.880;2024-03-23T15:10:45;5.70;;;1.30;;
77705;SDS011;66874;45.274;5.880;2024-03-23T15:13:11;5.32;;;1.23;;
77705;SDS011;66874;45.274;5.880;2024-03-23T15:15:42;3.60;;;1.00;;
77705;SDS011;66874;45.274;5.880;2024-03-23T15:18:13;2.60;;;0.63;;
77705;SDS011;66874;45.274;5.880;2024-03-23T15:20:40;10.18;;;3.63;;
77705;SDS011;66874;45.274;5.880;2024-03-23T15:23:06;5.20;;;1.30;;
77705;SDS011;66874;45.274;5.880;2024-03-23T15:25:31;17.60;;;5.78;;
77705;SDS011;66874;45.274;5.880;2024-03-23T15:27:57;4.97;;;1.10;;
77705;SDS011;66874;45.274;5.880;2024-03-23T15:30:24;4.47;;;0.95;;
77705;SDS011;66874;45.274;5.880;2024-03-23T15:32:50;3.00;;;0.88;;
77705;SDS011;66874;45.274;5.880;2024-03-23T15:35:15;6.22;;;1.00;;
77705;SDS011;66874;45.274;5.880;2024-03-23T15:37:40;3.47;;;1.10;;
77705;SDS011;66874;45.274;5.880;2024-03-23T15:40:06;3.63;;;1.05;;
77705;SDS011;66874;45.274;5.880;2024-03-23T15:42:32;3.92;;;0.90;;
77705;SDS011;66874;45.274;5.880;2024-03-23T15:44:57;2.53;;;1.00;;
77705;SDS011;66874;45.274;5.880;2024-03-23T15:47:23;4.18;;;0.82;;
77705;SDS011;66874;45.274;5.880;2024-03-23T15:49:49;7.00;;;2.63;;
77705;SDS011;66874;45.274;5.880;2024-03-23T15:52:14;4.25;;;0.98;;
77705;SDS011;66874;45.274;5.880;2024-03-23T15:54:40;5.00;;;0.80;;
77705;SDS011;66874;45.274;5.880;2024-03-23T15:57:05;4.85;;;0.95;;
77705;SDS011;66874;45.274;5.880;2024-03-23T15:59:32;4.37;;;1.00;;
77705;SDS011;66874;45.274;5.880;2024-03-23T16:01:57;5.03;;;1.10;;